createdAt,value
2022-12-22T00:41:47.309Z,2.88
2022-12-22T00:44:35.258Z,3.30
2022-12-22T00:47:25.734Z,2.55
2022-12-22T00:50:13.914Z,5.60
2022-12-22T00:53:02.093Z,4.72
2022-12-22T00:55:51.910Z,3.25
2022-12-22T00:58:41.063Z,3.95
2022-12-22T01:01:32.004Z,3.50
2022-12-22T01:04:20.536Z,3.95
2022-12-22T01:07:08.521Z,4.05
2022-12-22T01:09:56.876Z,6.03
2022-12-22T01:12:46.018Z,4.30
2022-12-22T01:15:36.458Z,2.92
2022-12-22T01:18:25.321Z,1.88
2022-12-22T01:21:14.156Z,3.80
2022-12-22T01:24:02.612Z,2.97
2022-12-22T01:26:50.678Z,5.22
2022-12-22T01:29:38.675Z,5.47
2022-12-22T01:32:26.691Z,3.33
2022-12-22T01:35:15.582Z,3.35
2022-12-22T01:38:03.480Z,3.30
2022-12-22T01:57:23.058Z,6.38
2022-12-22T02:00:11.135Z,5.15
2022-12-22T02:02:59.475Z,3.17
2022-12-22T02:05:47.883Z,3.92
2022-12-22T02:08:36.304Z,5.00
2022-12-22T02:11:27.173Z,5.20
2022-12-22T02:14:31.515Z,7.03
2022-12-22T02:17:35.440Z,4.35
2022-12-22T02:20:24.000Z,3.80
2022-12-22T02:23:30.346Z,4.80
2022-12-22T02:26:36.707Z,3.08
2022-12-22T02:29:26.541Z,3.05
2022-12-22T02:32:15.385Z,4.13
2022-12-22T02:35:03.993Z,4.57
2022-12-22T02:38:00.359Z,2.40
2022-12-22T02:41:03.462Z,5.05
2022-12-22T02:44:03.699Z,5.30
2022-12-22T02:47:05.699Z,4.65
2022-12-22T02:50:00.258Z,4.18
2022-12-22T02:52:57.503Z,4.15
2022-12-22T02:55:46.131Z,2.33
2022-12-22T02:58:34.920Z,3.22
2022-12-22T03:01:25.087Z,6.30
2022-12-22T03:04:13.103Z,3.35
2022-12-22T03:07:01.303Z,1.50
2022-12-22T03:09:49.447Z,2.88
2022-12-22T03:12:37.433Z,3.17
2022-12-22T03:15:25.478Z,1.73
2022-12-22T03:18:13.481Z,1.38
2022-12-22T03:21:01.469Z,5.18
2022-12-22T03:23:49.280Z,2.80
2022-12-22T03:26:19.607Z,2.22
2022-12-22T03:28:50.163Z,1.77
2022-12-22T03:31:20.707Z,2.33
2022-12-22T03:33:50.881Z,2.97
2022-12-22T03:36:20.807Z,3.80
2022-12-22T03:38:51.907Z,3.63
2022-12-22T03:41:40.491Z,2.30
2022-12-22T03:44:28.543Z,3.90
2022-12-22T03:46:58.533Z,3.13
2022-12-22T03:49:28.593Z,2.90
2022-12-22T03:51:58.885Z,3.53
2022-12-22T04:18:15.685Z,2.13
2022-12-22T04:20:45.577Z,2.97
2022-12-22T04:23:16.719Z,2.83
2022-12-22T04:25:46.648Z,3.60
2022-12-22T04:28:16.676Z,1.52
2022-12-22T04:30:46.586Z,2.30
2022-12-22T04:33:16.543Z,2.75
2022-12-22T04:35:46.637Z,2.58
2022-12-22T04:38:16.568Z,3.13
2022-12-22T04:40:46.469Z,3.40
2022-12-22T04:43:16.343Z,2.25
2022-12-22T04:45:47.184Z,2.13
2022-12-22T05:01:30.966Z,2.72
2022-12-22T06:35:10.787Z,1.85
2022-12-22T07:19:19.204Z,3.65
2022-12-22T07:21:52.847Z,2.70
2022-12-22T07:24:26.593Z,3.10
2022-12-22T07:27:02.908Z,2.15
2022-12-22T07:29:32.912Z,3.13
2022-12-22T07:32:03.266Z,1.80
2022-12-22T07:34:33.323Z,3.30
2022-12-22T07:37:21.634Z,2.10
2022-12-22T07:39:51.534Z,1.67
2022-12-22T07:42:39.639Z,2.65
2022-12-22T07:45:09.904Z,2.17
2022-12-22T07:47:39.801Z,1.45
2022-12-22T07:50:28.855Z,2.45
2022-12-22T07:52:59.278Z,2.22
2022-12-22T07:55:59.516Z,2.47
2022-12-22T07:58:47.311Z,2.13
2022-12-22T08:01:17.751Z,3.70
2022-12-22T08:03:48.056Z,1.88
2022-12-22T08:06:18.512Z,1.92
2022-12-22T08:08:48.803Z,2.22
2022-12-22T08:11:19.140Z,2.78
2022-12-22T08:13:49.681Z,4.22
2022-12-22T08:16:21.551Z,3.80
2022-12-22T08:18:52.364Z,4.00
2022-12-22T08:21:22.322Z,2.75
2022-12-22T08:23:52.295Z,3.25
2022-12-22T08:29:47.429Z,3.03
2022-12-22T08:32:17.886Z,2.20
2022-12-22T08:34:48.434Z,1.70
2022-12-22T08:37:19.297Z,1.63
2022-12-22T08:39:51.480Z,1.30
2022-12-22T08:42:22.302Z,2.60
2022-12-22T08:44:54.825Z,2.58
2022-12-22T08:48:09.657Z,2.60
2022-12-22T08:50:39.792Z,2.03
2022-12-22T08:53:23.678Z,4.90
2022-12-22T08:56:00.919Z,4.25
2022-12-22T08:58:30.807Z,2.40
2022-12-22T09:01:49.267Z,2.42
2022-12-22T09:04:23.313Z,4.93
2022-12-22T09:06:55.064Z,1.83
2022-12-22T09:09:25.098Z,4.07
2022-12-22T09:11:55.022Z,2.17
2022-12-22T09:14:24.971Z,2.55
2022-12-22T09:16:55.068Z,4.20
2022-12-22T09:19:25.281Z,3.00
2022-12-22T09:22:00.483Z,1.83
2022-12-22T09:24:30.893Z,4.28
2022-12-22T09:27:01.264Z,3.55
2022-12-22T09:29:31.595Z,3.08
2022-12-22T09:32:01.597Z,2.95
2022-12-22T09:34:32.330Z,2.00
2022-12-22T09:37:02.257Z,1.95
2022-12-22T09:39:32.194Z,5.57
2022-12-22T09:42:02.241Z,5.40
2022-12-22T09:44:38.311Z,4.68
2022-12-22T09:47:16.235Z,2.28
2022-12-22T09:49:46.553Z,2.65
2022-12-22T09:52:32.793Z,3.15
2022-12-22T09:55:03.880Z,2.03
2022-12-22T09:57:34.650Z,2.92
2022-12-22T10:00:18.080Z,1.60
2022-12-22T10:03:00.272Z,3.25
2022-12-22T10:05:35.540Z,2.97
2022-12-22T10:08:06.385Z,2.65
2022-12-22T10:10:36.828Z,2.75
2022-12-22T10:13:08.329Z,4.25
2022-12-22T10:15:40.142Z,2.25
2022-12-22T10:18:17.971Z,2.80
2022-12-22T10:21:10.087Z,3.45
2022-12-22T10:23:55.767Z,3.45
2022-12-22T10:26:30.413Z,7.50
2022-12-22T10:29:01.307Z,7.40
2022-12-22T10:31:33.155Z,7.03
2022-12-22T10:34:17.215Z,4.13
2022-12-22T10:54:08.480Z,6.28
2022-12-22T10:56:38.851Z,1.90
2022-12-22T10:59:19.541Z,2.55
2022-12-22T11:01:49.803Z,3.53
2022-12-22T11:04:21.674Z,3.28
2022-12-22T11:06:53.210Z,3.72
2022-12-22T11:09:33.854Z,3.47
2022-12-22T11:12:25.546Z,2.50
2022-12-22T11:15:17.185Z,3.33
2022-12-22T11:18:09.484Z,2.17
2022-12-22T11:20:42.919Z,4.35
2022-12-22T11:23:18.855Z,2.20
2022-12-22T11:25:58.299Z,5.03
2022-12-22T11:28:28.241Z,2.60
2022-12-22T11:31:27.473Z,3.22
2022-12-22T11:34:43.231Z,3.50
2022-12-22T11:37:32.005Z,3.70
2022-12-22T11:40:08.198Z,4.25
2022-12-22T11:42:38.132Z,2.85
2022-12-22T11:45:27.245Z,2.33
2022-12-22T11:48:03.256Z,4.65
2022-12-22T11:53:37.110Z,2.38
2022-12-22T11:56:21.775Z,4.65
2022-12-22T11:58:51.775Z,2.33
2022-12-22T12:01:39.866Z,5.10
2022-12-22T12:04:39.399Z,3.15
2022-12-22T12:07:15.025Z,2.38
2022-12-22T12:09:50.719Z,4.22
2022-12-22T12:12:26.170Z,3.58
2022-12-22T12:15:05.807Z,3.67
2022-12-22T12:17:54.429Z,2.70
2022-12-22T12:20:50.989Z,2.65
2022-12-22T12:23:39.180Z,2.00
2022-12-22T12:26:12.317Z,3.35
2022-12-22T12:28:52.584Z,2.45
2022-12-22T12:31:26.813Z,5.25
2022-12-22T12:34:04.991Z,1.83
2022-12-22T12:36:53.177Z,2.80
2022-12-22T12:39:41.438Z,3.05
2022-12-22T12:42:12.560Z,1.88
2022-12-22T12:44:43.235Z,2.45
2022-12-22T12:47:32.174Z,2.15
2022-12-22T12:50:03.892Z,3.35
2022-12-22T15:14:27.933Z,2.35
2022-12-22T15:17:03.288Z,2.90
2022-12-22T15:19:35.344Z,3.88
2022-12-22T15:22:06.008Z,4.60
2022-12-22T15:24:36.499Z,2.08
2022-12-22T15:27:06.522Z,3.95
2022-12-22T15:29:36.439Z,3.55
2022-12-22T15:32:06.378Z,5.05
2022-12-22T15:34:36.419Z,4.05
2022-12-22T15:37:40.015Z,4.68
2022-12-22T15:40:15.645Z,3.88
2022-12-22T15:42:46.090Z,3.40
2022-12-22T15:45:16.835Z,7.35
2022-12-22T15:47:49.355Z,5.82
2022-12-22T15:50:22.005Z,6.95
2022-12-22T15:52:54.624Z,7.10
2022-12-22T15:55:25.303Z,8.68
2022-12-22T15:57:57.025Z,8.70
2022-12-22T16:00:27.965Z,7.97
2022-12-22T16:02:59.456Z,9.30
2022-12-22T16:05:29.453Z,8.60
2022-12-22T16:07:59.821Z,7.00
2022-12-22T16:10:35.179Z,7.43
2022-12-22T16:13:06.062Z,7.38
2022-12-22T16:15:37.289Z,8.15
2022-12-22T16:18:08.595Z,8.68
2022-12-22T16:20:40.482Z,7.07
2022-12-22T16:23:15.683Z,8.32
2022-12-22T16:25:46.909Z,9.25
2022-12-22T16:28:22.063Z,6.95
2022-12-22T16:30:52.629Z,8.20
2022-12-22T16:33:23.081Z,7.78
2022-12-22T16:35:53.060Z,8.05
2022-12-22T16:38:23.681Z,7.82
2022-12-22T16:40:55.145Z,7.47
2022-12-22T16:46:24.681Z,6.95
2022-12-22T16:48:55.719Z,6.28
2022-12-22T16:51:31.024Z,6.55
2022-12-22T16:54:00.914Z,6.97
2022-12-22T16:56:32.517Z,6.93
2022-12-22T16:59:04.944Z,6.32
2022-12-22T17:01:40.269Z,5.68
2022-12-22T17:04:15.082Z,6.68
2022-12-22T17:06:45.185Z,7.60
2022-12-22T17:09:18.547Z,5.55
2022-12-22T17:11:49.239Z,7.22
2022-12-22T17:14:25.418Z,6.70
2022-12-22T17:16:55.405Z,7.47
2022-12-22T17:19:25.682Z,7.53
2022-12-22T17:21:56.641Z,7.35
2022-12-22T17:24:28.523Z,6.35
2022-12-22T17:27:03.541Z,4.97
2022-12-22T17:29:33.639Z,6.28
2022-12-22T17:32:03.736Z,7.15
2022-12-22T17:34:34.838Z,6.18
2022-12-22T17:37:05.148Z,6.30
2022-12-22T17:39:35.528Z,6.80
2022-12-22T17:42:05.938Z,6.38
2022-12-22T17:44:35.907Z,5.80
2022-12-22T17:47:06.473Z,6.20
2022-12-22T17:49:36.487Z,7.38
2022-12-22T17:52:07.614Z,6.75
2022-12-22T17:54:37.534Z,6.20
2022-12-22T17:57:08.050Z,4.82
2022-12-22T17:59:38.308Z,4.82
2022-12-22T18:02:08.931Z,4.47
2022-12-22T18:04:38.928Z,5.38
2022-12-22T18:07:08.894Z,4.43
2022-12-22T18:09:39.305Z,6.53
2022-12-22T18:12:31.385Z,5.82
2022-12-22T18:15:01.696Z,6.53
2022-12-22T18:17:35.916Z,4.43
2022-12-22T18:20:06.515Z,4.45
2022-12-22T18:22:36.758Z,4.75
2022-12-22T18:25:13.132Z,4.90
2022-12-22T18:27:43.026Z,5.18
2022-12-22T18:30:19.234Z,4.90
2022-12-22T18:32:50.615Z,4.30
2022-12-22T18:35:21.631Z,5.28
2022-12-22T18:37:54.047Z,6.20
2022-12-22T18:40:28.271Z,3.53
2022-12-22T18:42:59.605Z,4.57
2022-12-22T18:47:57.004Z,4.20
2022-12-22T18:50:34.744Z,4.50
2022-12-22T18:53:14.926Z,4.93
2022-12-22T18:55:48.043Z,4.75
2022-12-22T18:58:20.019Z,5.13
2022-12-22T19:00:50.997Z,5.05
2022-12-22T19:03:30.510Z,4.80
2022-12-22T19:06:01.635Z,4.70
2022-12-22T19:08:32.842Z,4.45
2022-12-22T19:11:07.122Z,4.03
2022-12-22T19:13:38.582Z,5.10
2022-12-22T19:16:09.464Z,5.85
2022-12-22T19:18:39.797Z,4.32
2022-12-22T19:21:10.150Z,4.00
2022-12-22T19:23:40.572Z,4.50
2022-12-22T19:26:18.014Z,4.55
2022-12-22T19:28:48.420Z,4.38
2022-12-22T19:31:25.836Z,4.88
2022-12-22T19:33:56.654Z,5.18
2022-12-22T19:36:28.835Z,7.03
2022-12-22T19:39:05.557Z,6.43
2022-12-22T19:41:47.616Z,5.88
2022-12-22T19:44:28.599Z,6.43
2022-12-22T19:47:01.138Z,4.90
2022-12-22T19:49:31.499Z,5.63
2022-12-22T19:52:01.463Z,4.40
2022-12-22T19:54:33.730Z,4.95
2022-12-22T19:57:03.822Z,3.45
2022-12-22T19:59:39.706Z,3.65
2022-12-22T20:02:26.968Z,3.88
2022-12-22T20:04:57.202Z,6.82
2022-12-22T20:07:29.750Z,4.45
2022-12-22T20:10:00.097Z,4.93
2022-12-22T20:12:38.605Z,5.05
2022-12-22T20:15:17.718Z,5.15
2022-12-22T20:17:48.508Z,8.60
2022-12-22T20:20:19.315Z,6.72
2022-12-22T20:22:53.885Z,5.68
2022-12-22T20:25:25.759Z,6.97
2022-12-22T20:27:56.909Z,4.68
2022-12-22T20:30:30.974Z,6.05
2022-12-22T20:33:01.423Z,4.60
2022-12-22T20:35:31.748Z,5.40
2022-12-22T20:38:03.074Z,5.43
2022-12-22T20:40:35.449Z,7.43
2022-12-22T20:43:05.364Z,5.03
2022-12-22T20:45:35.297Z,3.88
2022-12-22T20:48:05.245Z,4.70
2022-12-22T20:50:36.007Z,5.22
2022-12-22T20:53:07.015Z,5.10
2022-12-22T20:55:37.341Z,6.95
2022-12-22T20:58:10.071Z,7.15
2022-12-22T21:00:40.147Z,6.47
2022-12-22T21:03:11.844Z,7.32
2022-12-22T21:05:41.893Z,5.63
2022-12-22T21:08:20.826Z,5.20
2022-12-22T21:10:51.261Z,4.88
2022-12-22T21:13:21.882Z,5.90
2022-12-22T21:15:53.100Z,8.07
2022-12-22T21:18:24.971Z,11.88
2022-12-22T21:20:55.398Z,10.50
2022-12-22T21:23:25.482Z,12.35
2022-12-22T21:25:55.941Z,11.52
2022-12-22T21:28:26.060Z,11.95
2022-12-22T21:30:56.141Z,12.30
2022-12-22T21:33:26.245Z,12.02
2022-12-22T21:35:57.122Z,10.65
2022-12-22T21:38:28.790Z,12.15
2022-12-22T21:41:00.240Z,10.80
2022-12-22T21:43:30.272Z,10.98
2022-12-22T21:46:00.335Z,11.93
2022-12-22T21:48:36.404Z,11.38
2022-12-22T21:53:45.700Z,12.50
2022-12-22T21:56:22.221Z,11.27
2022-12-22T21:58:52.149Z,14.13
